Time;durP1;ratioP1;P1;durP2;ratioP2;P2;SDS_P1;SDS_P2;PMS_P1;PMS_P2;Temp;Humidity;BMP_temperature;BMP_pressure;BME280_temperature;BME280_humidity;BME280_pressure;Samples;Min_cycle;Max_cycle;Signal;HPM_P1;HPM_P2
2021/10/20 00:00:27;;;;;;;4.73;3.70;;;10.90;99.90;;;;;;5052556;28;20206;-60
2021/10/20 00:02:55;;;;;;;6.80;3.70;;;10.90;99.90;;;;;;5052393;28;20201;-60
2021/10/20 00:05:23;;;;;;;7.40;3.60;;;10.90;99.90;;;;;;5052563;28;20205;-60
2021/10/20 00:07:52;;;;;;;4.87;3.53;;;10.90;99.90;;;;;;5052112;28;20229;-60
2021/10/20 00:10:20;;;;;;;7.90;3.93;;;10.90;99.90;;;;;;5052462;28;20209;-60
2021/10/20 00:12:48;;;;;;;4.93;3.53;;;10.90;99.90;;;;;;5052563;28;20307;-60
2021/10/20 00:15:18;;;;;;;4.67;3.60;;;10.90;99.90;;;;;;5052310;28;20213;-60
2021/10/20 00:17:45;;;;;;;6.70;3.80;;;11.00;99.90;;;;;;5052164;28;20229;-60
2021/10/20 00:20:17;;;;;;;4.47;3.67;;;10.90;99.90;;;;;;5052030;28;20270;-60
2021/10/20 00:22:45;;;;;;;4.33;3.63;;;10.90;99.90;;;;;;5052248;28;20206;-60
2021/10/20 00:25:14;;;;;;;4.20;3.30;;;10.90;99.90;;;;;;5051796;28;20716;-60
2021/10/20 00:27:40;;;;;;;3.90;3.50;;;10.90;99.90;;;;;;5051839;28;20256;-60
2021/10/20 00:30:09;;;;;;;4.00;3.30;;;10.90;99.90;;;;;;5051953;28;20206;-60
2021/10/20 00:32:36;;;;;;;5.50;3.53;;;10.80;99.90;;;;;;5051830;28;20631;-60
2021/10/20 00:35:03;;;;;;;4.17;3.40;;;10.90;99.90;;;;;;5051754;28;20213;-60
2021/10/20 00:37:30;;;;;;;5.73;3.40;;;10.90;99.90;;;;;;5051444;28;20673;-60
2021/10/20 00:39:58;;;;;;;4.33;3.53;;;10.90;99.90;;;;;;5052456;28;20248;-60
2021/10/20 00:42:25;;;;;;;3.83;3.50;;;10.90;99.90;;;;;;5052003;28;20209;-60
2021/10/20 00:44:53;;;;;;;5.50;3.63;;;10.90;99.90;;;;;;5051588;28;20255;-60
2021/10/20 00:47:20;;;;;;;4.07;3.33;;;10.90;99.90;;;;;;5051428;28;20205;-60
2021/10/20 00:49:49;;;;;;;5.27;3.50;;;10.90;99.90;;;;;;5051616;28;20403;-60
2021/10/20 00:52:17;;;;;;;4.63;3.17;;;10.80;99.90;;;;;;5051361;28;20210;-61
2021/10/20 00:54:44;;;;;;;4.30;3.63;;;10.80;99.90;;;;;;5051724;28;20201;-60
2021/10/20 00:57:13;;;;;;;3.57;3.03;;;10.80;99.90;;;;;;5051523;28;20208;-60
2021/10/20 00:59:41;;;;;;;4.80;3.60;;;10.80;99.90;;;;;;5051297;28;20237;-60
2021/10/20 01:02:09;;;;;;;4.40;3.53;;;10.80;99.90;;;;;;5051412;28;20216;-59
2021/10/20 01:04:37;;;;;;;5.10;3.67;;;10.80;99.90;;;;;;5051244;28;20205;-59
2021/10/20 01:07:04;;;;;;;4.50;3.40;;;10.90;99.90;;;;;;5051462;28;20206;-59
2021/10/20 01:09:31;;;;;;;3.60;3.23;;;10.90;99.90;;;;;;5051516;28;20267;-59
2021/10/20 01:11:58;;;;;;;5.53;3.40;;;10.90;99.90;;;;;;5051573;28;20213;-59
2021/10/20 01:14:28;;;;;;;4.23;3.53;;;10.90;99.90;;;;;;5051196;28;20206;-60
2021/10/20 01:16:55;;;;;;;10.07;3.97;;;10.80;99.90;;;;;;5051119;28;20244;-60
2021/10/20 01:19:22;;;;;;;5.60;3.87;;;10.90;99.90;;;;;;5050859;28;20230;-60
2021/10/20 01:21:52;;;;;;;6.40;3.73;;;10.80;99.90;;;;;;5051059;28;20205;-60
2021/10/20 01:24:19;;;;;;;4.10;3.17;;;10.90;99.90;;;;;;5050973;28;20244;-60
2021/10/20 01:26:46;;;;;;;4.40;3.40;;;10.80;99.90;;;;;;5051112;28;20214;-59
2021/10/20 01:29:13;;;;;;;4.93;3.30;;;10.70;99.90;;;;;;5050808;28;20225;-60
2021/10/20 01:31:45;;;;;;;7.03;3.40;;;10.70;99.90;;;;;;5050943;28;20205;-60
2021/10/20 01:34:12;;;;;;;3.70;3.30;;;10.70;99.90;;;;;;5051272;28;20209;-59
2021/10/20 01:36:39;;;;;;;3.43;3.07;;;10.70;99.90;;;;;;5051097;28;20216;-60
2021/10/20 01:39:07;;;;;;;3.37;2.93;;;10.70;99.90;;;;;;5050467;28;20233;-60
2021/10/20 01:41:33;;;;;;;6.43;3.57;;;10.70;99.90;;;;;;5050786;28;20202;-60
2021/10/20 01:44:00;;;;;;;4.70;3.37;;;10.60;99.90;;;;;;5050529;28;20213;-60
2021/10/20 01:46:27;;;;;;;4.97;3.53;;;10.60;99.90;;;;;;5050667;28;20210;-60
2021/10/20 01:48:54;;;;;;;7.23;3.73;;;10.50;99.90;;;;;;5050453;28;20721;-60
2021/10/20 01:51:21;;;;;;;3.77;3.20;;;10.60;99.90;;;;;;5050860;28;20205;-60
2021/10/20 01:53:47;;;;;;;4.17;3.30;;;10.70;99.90;;;;;;5050665;28;20201;-60
2021/10/20 01:56:16;;;;;;;3.87;3.30;;;10.70;99.90;;;;;;5050750;28;20205;-60
2021/10/20 01:58:44;;;;;;;5.23;3.13;;;10.70;99.90;;;;;;5050215;28;20685;-60
2021/10/20 02:01:11;;;;;;;5.63;3.13;;;10.70;99.90;;;;;;5050500;28;20205;-60
2021/10/20 02:03:40;;;;;;;4.43;3.33;;;10.70;99.90;;;;;;5050716;28;20205;-60
2021/10/20 02:06:09;;;;;;;4.27;3.50;;;10.70;99.90;;;;;;5050828;28;20212;-60
2021/10/20 02:08:36;;;;;;;6.53;3.10;;;10.70;99.90;;;;;;5050715;28;20225;-60
2021/10/20 02:11:02;;;;;;;5.53;3.10;;;10.70;99.90;;;;;;5050604;28;20213;-60
2021/10/20 02:13:30;;;;;;;5.43;3.10;;;10.70;99.90;;;;;;5052193;28;20205;-60
2021/10/20 02:15:57;;;;;;;6.33;3.17;;;10.70;99.90;;;;;;5054587;28;20206;-60
2021/10/20 02:18:24;;;;;;;5.87;3.13;;;10.60;99.90;;;;;;5054445;28;20228;-60
2021/10/20 02:20:52;;;;;;;4.83;3.10;;;10.60;99.90;;;;;;5054402;28;20229;-60
2021/10/20 02:23:19;;;;;;;3.00;2.70;;;10.60;99.90;;;;;;5054439;28;20205;-59
2021/10/20 02:25:46;;;;;;;6.93;3.00;;;10.60;99.90;;;;;;5054173;28;20210;-60
2021/10/20 02:28:13;;;;;;;3.60;2.70;;;10.60;99.90;;;;;;5054407;28;20635;-60
2021/10/20 02:30:41;;;;;;;5.03;3.00;;;10.60;99.90;;;;;;5054685;28;20228;-60
2021/10/20 02:33:08;;;;;;;4.57;2.90;;;10.60;99.90;;;;;;5054449;28;20260;-60
2021/10/20 02:35:35;;;;;;;3.73;2.70;;;10.60;99.90;;;;;;5054200;28;20582;-60
2021/10/20 02:38:01;;;;;;;3.20;2.73;;;10.70;99.90;;;;;;5053881;28;20233;-61
2021/10/20 02:40:28;;;;;;;5.37;4.30;;;10.80;99.90;;;;;;5053914;28;20256;-60
2021/10/20 02:42:55;;;;;;;3.90;3.17;;;10.70;99.90;;;;;;5054201;28;20205;-61
2021/10/20 02:45:22;;;;;;;5.10;3.00;;;10.80;99.90;;;;;;5054078;28;20205;-60
2021/10/20 02:47:50;;;;;;;4.63;2.87;;;11.00;99.90;;;;;;5053737;28;20283;-60
2021/10/20 02:50:17;;;;;;;3.17;2.57;;;11.00;99.90;;;;;;5053912;28;20208;-60
2021/10/20 02:52:44;;;;;;;4.23;2.80;;;11.00;99.90;;;;;;5053838;28;20212;-61
2021/10/20 02:55:11;;;;;;;4.83;2.93;;;11.10;99.90;;;;;;5053691;28;20225;-61
2021/10/20 02:57:37;;;;;;;4.33;2.93;;;11.10;99.90;;;;;;5053443;28;20202;-61
2021/10/20 03:00:06;;;;;;;3.40;2.80;;;11.20;99.90;;;;;;5053753;28;20225;-61
2021/10/20 03:02:32;;;;;;;5.10;2.93;;;11.10;99.90;;;;;;5053315;28;20209;-61
2021/10/20 03:05:00;;;;;;;3.93;3.17;;;11.10;99.90;;;;;;5053628;28;20212;-60
2021/10/20 03:07:27;;;;;;;4.30;3.10;;;11.10;99.90;;;;;;5053452;28;20692;-61
2021/10/20 03:09:54;;;;;;;5.10;3.20;;;11.10;99.90;;;;;;5053290;28;20208;-60
2021/10/20 03:12:20;;;;;;;3.53;2.90;;;11.00;99.90;;;;;;5053573;28;20210;-60
2021/10/20 03:14:47;;;;;;;6.13;3.20;;;10.90;99.90;;;;;;5053290;28;20264;-59
2021/10/20 03:17:16;;;;;;;4.20;2.70;;;10.90;99.90;;;;;;5053333;28;20209;-60
2021/10/20 03:19:43;;;;;;;4.43;3.17;;;10.80;99.90;;;;;;5053059;28;20237;-61
2021/10/20 03:22:11;;;;;;;4.33;3.17;;;10.70;99.90;;;;;;5053215;28;20214;-61
2021/10/20 03:24:38;;;;;;;3.60;3.23;;;10.60;99.90;;;;;;5051683;28;20201;-60
2021/10/20 03:27:05;;;;;;;3.27;2.80;;;10.60;99.90;;;;;;5053279;28;20202;-60
2021/10/20 03:29:31;;;;;;;4.83;3.40;;;10.60;99.90;;;;;;5052814;28;20229;-60
2021/10/20 03:31:58;;;;;;;3.83;3.37;;;10.60;99.90;;;;;;5053082;28;20205;-61
2021/10/20 03:34:24;;;;;;;5.90;4.07;;;10.60;99.90;;;;;;5052862;28;20206;-61
2021/10/20 03:36:51;;;;;;;4.53;3.00;;;10.60;99.90;;;;;;5052972;28;20216;-60
2021/10/20 03:39:19;;;;;;;5.20;3.50;;;10.50;99.90;;;;;;5052262;28;20229;-61
2021/10/20 03:41:46;;;;;;;4.20;3.23;;;10.50;99.90;;;;;;5052718;28;20252;-60
2021/10/20 03:44:13;;;;;;;3.70;3.27;;;10.40;99.90;;;;;;5052719;28;20252;-61
2021/10/20 03:46:40;;;;;;;4.30;3.63;;;10.40;99.90;;;;;;5052666;28;20684;-60
2021/10/20 03:49:06;;;;;;;5.63;3.20;;;10.40;99.90;;;;;;5052626;28;20607;-60
2021/10/20 03:51:33;;;;;;;3.50;2.80;;;10.40;99.90;;;;;;5053038;28;20634;-60
2021/10/20 03:54:00;;;;;;;3.70;3.23;;;10.30;99.90;;;;;;5052728;28;20217;-60
2021/10/20 03:56:28;;;;;;;4.87;3.57;;;10.30;99.90;;;;;;5052644;28;20588;-60
2021/10/20 03:58:54;;;;;;;3.93;3.20;;;10.30;99.90;;;;;;5052329;28;20233;-60
2021/10/20 04:01:21;;;;;;;5.43;3.40;;;10.40;99.90;;;;;;5052680;28;20236;-60
2021/10/20 04:03:48;;;;;;;3.47;2.87;;;10.30;99.90;;;;;;5052632;28;20623;-61
2021/10/20 04:06:15;;;;;;;5.60;3.00;;;10.50;99.90;;;;;;5052609;28;20259;-60
2021/10/20 04:08:41;;;;;;;4.53;3.20;;;10.40;99.90;;;;;;5052319;28;20609;-60
2021/10/20 04:11:08;;;;;;;5.30;3.20;;;10.40;99.90;;;;;;5052478;28;20198;-60
2021/10/20 04:13:36;;;;;;;4.20;3.50;;;10.30;99.90;;;;;;5052289;28;20209;-60
2021/10/20 04:16:02;;;;;;;4.63;3.30;;;10.40;99.90;;;;;;5052329;28;20205;-60
2021/10/20 04:18:29;;;;;;;6.27;3.50;;;10.40;99.90;;;;;;5052050;28;20222;-61
2021/10/20 04:20:56;;;;;;;4.83;3.60;;;10.50;99.90;;;;;;5052335;28;20224;-61
2021/10/20 04:23:23;;;;;;;5.43;3.47;;;10.60;99.90;;;;;;5052074;28;20210;-60
2021/10/20 04:25:49;;;;;;;4.90;3.10;;;10.60;99.90;;;;;;5052065;28;20205;-61
2021/10/20 04:28:16;;;;;;;4.77;3.27;;;10.70;99.90;;;;;;5051659;28;20661;-61
2021/10/20 04:30:44;;;;;;;4.87;3.50;;;10.80;99.90;;;;;;5051805;28;20666;-61
2021/10/20 04:33:10;;;;;;;4.53;3.20;;;10.80;99.90;;;;;;5051892;28;20286;-61
2021/10/20 04:35:37;;;;;;;4.03;3.10;;;10.70;99.90;;;;;;5051595;28;20202;-61
2021/10/20 04:38:04;;;;;;;5.33;3.37;;;10.70;99.90;;;;;;5051913;28;20567;-60
2021/10/20 04:40:31;;;;;;;7.57;3.87;;;10.60;99.90;;;;;;5051670;28;20225;-60
2021/10/20 04:42:58;;;;;;;3.97;3.40;;;10.60;99.90;;;;;;5051669;28;20206;-60
2021/10/20 04:45:24;;;;;;;5.43;3.47;;;10.60;99.90;;;;;;5051205;28;20252;-61
2021/10/20 04:47:52;;;;;;;4.87;3.57;;;10.50;99.90;;;;;;5051001;28;20230;-60
2021/10/20 04:50:19;;;;;;;6.53;3.53;;;10.50;99.90;;;;;;5051734;28;20213;-61
2021/10/20 04:52:46;;;;;;;5.50;3.40;;;10.50;99.90;;;;;;5051578;28;20292;-60
2021/10/20 04:55:13;;;;;;;4.97;3.83;;;10.50;99.90;;;;;;5051836;28;20216;-60
2021/10/20 04:57:40;;;;;;;3.93;3.10;;;10.50;99.90;;;;;;5051138;28;20252;-61
2021/10/20 05:00:08;;;;;;;4.53;3.70;;;10.40;99.90;;;;;;5050836;28;20221;-60
2021/10/20 05:02:36;;;;;;;4.27;3.70;;;10.30;99.90;;;;;;5051141;28;20544;-61
2021/10/20 05:05:05;;;;;;;5.60;3.40;;;10.30;99.90;;;;;;5050906;28;20209;-61
2021/10/20 05:07:31;;;;;;;7.97;4.37;;;10.30;99.90;;;;;;5051309;28;20213;-61
2021/10/20 05:09:58;;;;;;;5.67;3.70;;;10.30;99.90;;;;;;5050957;28;20202;-61
2021/10/20 05:12:25;;;;;;;3.57;3.10;;;10.30;99.90;;;;;;5051618;28;20205;-62
2021/10/20 05:14:51;;;;;;;4.43;3.30;;;10.40;99.90;;;;;;5050700;28;20206;-60
2021/10/20 05:17:18;;;;;;;6.43;3.50;;;10.30;99.90;;;;;;5051086;28;20263;-59
2021/10/20 05:19:45;;;;;;;5.40;3.37;;;10.40;99.90;;;;;;5050811;28;20213;-60
2021/10/20 05:22:13;;;;;;;4.23;3.17;;;10.30;99.90;;;;;;5051052;28;20260;-60
2021/10/20 05:24:39;;;;;;;3.93;3.17;;;10.30;99.90;;;;;;5050835;28;20205;-60
2021/10/20 05:27:06;;;;;;;5.20;3.53;;;10.20;99.90;;;;;;5050903;28;20561;-59
2021/10/20 05:29:33;;;;;;;3.77;2.90;;;10.10;99.90;;;;;;5050612;28;20639;-59
2021/10/20 05:32:00;;;;;;;6.47;3.50;;;10.10;99.90;;;;;;5051204;28;20231;-59
2021/10/20 05:34:27;;;;;;;5.00;3.33;;;10.20;99.90;;;;;;5051057;28;20205;-60
2021/10/20 05:36:54;;;;;;;4.57;3.47;;;10.20;99.90;;;;;;5051129;28;20645;-60
2021/10/20 05:39:22;;;;;;;4.70;3.50;;;10.30;99.90;;;;;;5050521;28;20253;-60
2021/10/20 05:41:50;;;;;;;5.70;3.60;;;10.30;99.90;;;;;;5050976;28;20317;-60
2021/10/20 05:44:17;;;;;;;5.37;3.67;;;10.20;99.90;;;;;;5051048;28;20214;-60
2021/10/20 05:46:44;;;;;;;6.03;3.50;;;10.20;99.90;;;;;;5051062;28;20213;-60
2021/10/20 05:49:11;;;;;;;6.47;3.60;;;10.10;99.90;;;;;;5050326;28;20221;-60
2021/10/20 05:51:37;;;;;;;6.23;3.77;;;10.20;99.90;;;;;;5051032;28;20390;-61
2021/10/20 05:54:04;;;;;;;6.73;3.67;;;10.10;99.90;;;;;;5050657;28;20202;-61
2021/10/20 05:56:32;;;;;;;4.17;3.20;;;10.20;99.90;;;;;;5050320;28;20218;-60
2021/10/20 05:58:59;;;;;;;4.23;3.37;;;10.20;99.90;;;;;;5050580;28;20229;-60
2021/10/20 06:01:25;;;;;;;5.57;3.57;;;10.20;99.90;;;;;;5050671;28;20441;-60
2021/10/20 06:03:52;;;;;;;5.13;3.77;;;10.20;99.90;;;;;;5050471;28;20409;-60
2021/10/20 06:06:19;;;;;;;5.10;3.67;;;10.20;99.90;;;;;;5050653;28;20210;-60
2021/10/20 06:08:45;;;;;;;4.87;3.47;;;10.20;99.90;;;;;;5050350;28;20511;-60
2021/10/20 06:11:12;;;;;;;3.70;3.40;;;10.10;99.90;;;;;;5050212;28;20205;-60
2021/10/20 06:13:40;;;;;;;7.17;3.80;;;10.00;99.90;;;;;;5050322;28;20244;-60
2021/10/20 06:16:07;;;;;;;8.20;4.10;;;10.00;99.90;;;;;;5050366;28;20205;-60
2021/10/20 06:18:34;;;;;;;7.37;3.80;;;10.00;99.90;;;;;;5050364;28;20229;-60
2021/10/20 06:21:00;;;;;;;6.63;3.90;;;10.10;99.90;;;;;;5050235;28;20279;-60
2021/10/20 06:23:27;;;;;;;4.97;3.77;;;10.10;99.90;;;;;;5050197;28;20209;-61
2021/10/20 06:25:54;;;;;;;4.30;3.70;;;10.10;99.90;;;;;;5050643;28;20217;-60
2021/10/20 06:28:20;;;;;;;5.50;3.50;;;10.00;99.90;;;;;;5050032;28;20271;-60
2021/10/20 06:30:48;;;;;;;5.43;3.50;;;10.20;99.90;;;;;;5050199;28;20584;-61
2021/10/20 06:33:15;;;;;;;7.87;4.50;;;10.70;99.90;;;;;;5050160;28;20680;-60
2021/10/20 06:35:42;;;;;;;4.70;3.60;;;11.20;99.90;;;;;;5050201;28;20205;-61
2021/10/20 06:38:09;;;;;;;5.20;3.77;;;11.70;99.90;;;;;;5075573;22;20238;-62
2021/10/20 06:40:35;;;;;;;4.93;3.40;;;12.10;99.90;;;;;;5073108;28;20258;-62
2021/10/20 06:43:02;;;;;;;8.30;3.60;;;12.80;99.90;;;;;;5072425;28;20205;-59
2021/10/20 06:45:29;;;;;;;6.40;3.97;;;13.30;99.90;;;;;;5071881;28;20209;-60
2021/10/20 06:47:57;;;;;;;5.73;3.50;;;13.90;99.90;;;;;;5071654;28;20203;-60
2021/10/20 06:50:24;;;;;;;8.40;3.90;;;14.30;99.90;;;;;;5072085;28;20211;-60
2021/10/20 06:52:51;;;;;;;8.97;3.67;;;14.50;99.90;;;;;;5072295;28;20236;-58
2021/10/20 06:55:17;;;;;;;7.50;4.17;;;14.40;99.90;;;;;;5071515;28;20224;-60
2021/10/20 06:57:44;;;;;;;7.67;3.90;;;14.60;99.90;;;;;;5070967;28;20205;-59
2021/10/20 07:00:12;;;;;;;6.67;4.13;;;14.90;99.90;;;;;;5073220;28;20225;-59
2021/10/20 07:02:39;;;;;;;5.77;3.70;;;15.70;99.90;;;;;;5074175;28;20212;-60
2021/10/20 07:05:08;;;;;;;5.73;3.70;;;16.30;99.90;;;;;;5073745;28;20213;-61
2021/10/20 07:07:35;;;;;;;5.23;3.50;;;16.30;99.90;;;;;;5074038;28;20846;-61
2021/10/20 07:10:02;;;;;;;6.60;3.80;;;16.00;99.90;;;;;;5074204;28;20225;-61
2021/10/20 07:12:31;;;;;;;6.20;3.43;;;15.60;99.90;;;;;;5074523;28;20200;-61
2021/10/20 07:14:58;;;;;;;4.47;3.67;;;15.00;99.90;;;;;;5073794;28;20652;-60
2021/10/20 07:17:24;;;;;;;8.03;3.30;;;14.70;99.90;;;;;;5074127;28;20215;-61
2021/10/20 07:19:51;;;;;;;5.60;3.30;;;14.20;99.90;;;;;;5073865;28;20221;-60
2021/10/20 07:22:19;;;;;;;4.07;3.27;;;13.80;99.90;;;;;;5074667;28;20225;-61
2021/10/20 07:24:46;;;;;;;5.27;3.30;;;13.30;99.90;;;;;;5074405;28;20201;-63
2021/10/20 07:27:12;;;;;;;4.73;3.57;;;13.10;99.90;;;;;;5073304;28;20209;-60
2021/10/20 07:29:40;;;;;;;5.07;3.20;;;13.10;99.90;;;;;;5073056;28;20235;-60
2021/10/20 07:32:08;;;;;;;3.73;3.23;;;13.20;99.90;;;;;;5073879;28;20197;-60
2021/10/20 07:34:34;;;;;;;5.57;3.30;;;13.30;99.90;;;;;;5072886;28;20208;-60
2021/10/20 07:37:01;;;;;;;3.23;2.93;;;13.50;99.90;;;;;;5073232;28;20208;-60
2021/10/20 07:39:29;;;;;;;5.70;3.30;;;13.60;99.90;;;;;;5072838;28;20639;-60
2021/10/20 07:41:56;;;;;;;7.57;2.97;;;13.80;99.90;;;;;;5072975;28;20233;-60
2021/10/20 07:44:22;;;;;;;4.83;3.03;;;14.00;99.90;;;;;;5072814;28;20622;-60
2021/10/20 07:46:49;;;;;;;3.60;2.63;;;14.20;99.90;;;;;;5072849;28;20205;-60
2021/10/20 07:49:16;;;;;;;4.80;3.20;;;14.40;99.90;;;;;;5072812;28;20224;-60
2021/10/20 07:51:43;;;;;;;4.10;3.10;;;14.60;99.90;;;;;;5073066;28;20209;-62
2021/10/20 07:54:09;;;;;;;5.80;3.80;;;14.80;99.90;;;;;;5072686;28;20212;-60
2021/10/20 07:56:42;;;;;;;9.53;4.27;;;15.10;99.90;;;;;;5073069;28;20274;-60
2021/10/20 07:59:09;;;;;;;3.90;2.57;;;15.60;99.90;;;;;;5072706;28;20744;-60
2021/10/20 08:01:36;;;;;;;4.50;2.20;;;16.20;99.90;;;;;;5073733;28;20232;-60
2021/10/20 08:04:03;;;;;;;3.53;2.10;;;16.70;99.90;;;;;;5075310;28;20208;-60
2021/10/20 08:06:30;;;;;;;4.47;2.13;;;17.20;99.90;;;;;;5074166;28;20209;-60
2021/10/20 08:08:56;;;;;;;3.77;2.47;;;17.70;99.90;;;;;;5073593;28;20251;-60
2021/10/20 08:11:23;;;;;;;4.87;2.30;;;18.10;99.90;;;;;;5072683;28;20208;-58
2021/10/20 08:13:51;;;;;;;3.92;2.13;;;18.60;99.90;;;;;;5072516;28;20212;-58
2021/10/20 08:16:18;;;;;;;3.25;2.20;;;18.90;99.90;;;;;;5073403;28;20664;-58
2021/10/20 08:18:44;;;;;;;3.65;1.88;;;19.30;99.90;;;;;;5074134;28;20221;-58
2021/10/20 08:21:11;;;;;;;2.85;1.85;;;19.50;99.90;;;;;;5072994;28;20221;-58
2021/10/20 08:23:38;;;;;;;4.47;2.00;;;19.80;99.90;;;;;;5072056;28;20695;-60
2021/10/20 08:26:04;;;;;;;4.38;2.03;;;19.90;99.90;;;;;;5072097;28;20805;-59
2021/10/20 08:28:31;;;;;;;1.98;1.70;;;20.20;99.90;;;;;;5072253;28;20232;-59
2021/10/20 08:30:59;;;;;;;3.83;2.00;;;20.40;99.90;;;;;;5071971;28;20663;-60
2021/10/20 08:33:26;;;;;;;6.07;2.15;;;20.60;99.90;;;;;;5071984;28;20216;-60
2021/10/20 08:35:53;;;;;;;3.03;2.30;;;20.60;99.90;;;;;;5071870;28;20214;-60
2021/10/20 08:38:20;;;;;;;3.92;2.28;;;20.70;99.70;;;;;;5071459;28;20290;-59
2021/10/20 08:40:47;;;;;;;3.58;2.40;;;20.80;99.50;;;;;;5071539;28;20280;-59
2021/10/20 08:43:15;;;;;;;4.70;2.17;;;20.90;99.40;;;;;;5071460;28;20216;-59
2021/10/20 08:45:43;;;;;;;2.58;2.15;;;21.10;99.30;;;;;;5071596;28;20278;-59
2021/10/20 08:48:12;;;;;;;4.22;2.13;;;21.20;98.80;;;;;;5071627;28;20209;-59
2021/10/20 08:50:39;;;;;;;2.65;1.95;;;21.30;98.70;;;;;;5071639;28;20213;-59
2021/10/20 08:53:06;;;;;;;4.22;3.10;;;21.20;98.40;;;;;;5071433;28;20730;-59
2021/10/20 08:55:34;;;;;;;2.53;2.15;;;21.30;98.40;;;;;;5071224;28;20209;-59
2021/10/20 08:58:01;;;;;;;4.05;2.50;;;21.30;98.10;;;;;;5071178;28;20205;-59
2021/10/20 09:00:29;;;;;;;2.78;2.20;;;21.30;98.10;;;;;;5071536;28;20205;-58
2021/10/20 09:02:56;;;;;;;4.45;2.80;;;21.00;98.40;;;;;;5071278;28;20317;-59
2021/10/20 09:05:26;;;;;;;4.22;2.10;;;21.00;98.50;;;;;;5071299;28;20209;-59
2021/10/20 09:07:54;;;;;;;5.18;2.40;;;21.00;98.50;;;;;;5071054;28;20208;-59
2021/10/20 09:10:23;;;;;;;2.90;2.40;;;21.00;98.50;;;;;;5071229;28;20209;-59
2021/10/20 09:12:50;;;;;;;4.43;2.17;;;21.00;98.80;;;;;;5071387;28;20197;-59
2021/10/20 09:15:20;;;;;;;5.53;2.25;;;21.00;98.70;;;;;;5071159;28;20581;-59
2021/10/20 09:17:49;;;;;;;2.75;2.40;;;21.00;98.50;;;;;;5070918;28;20204;-59
2021/10/20 09:20:19;;;;;;;5.40;2.50;;;20.90;98.70;;;;;;5070950;28;20311;-58
2021/10/20 09:22:56;;;;;;;4.10;2.72;;;21.00;98.90;;;;;;5069998;28;20229;-59
2021/10/20 09:25:23;;;;;;;5.78;2.38;;;21.10;99.10;;;;;;5071089;28;20303;-59
2021/10/20 09:27:51;;;;;;;3.03;2.53;;;21.10;99.00;;;;;;5071065;28;20227;-59
2021/10/20 09:30:17;;;;;;;5.15;2.03;;;21.20;99.00;;;;;;5071073;28;20208;-59
2021/10/20 09:32:45;;;;;;;3.03;2.30;;;21.30;98.70;;;;;;5070892;28;20197;-59
2021/10/20 09:35:13;;;;;;;2.65;2.45;;;21.30;99.00;;;;;;5070877;28;20216;-59
2021/10/20 09:37:41;;;;;;;4.53;2.42;;;21.30;98.90;;;;;;5071184;28;20266;-59
2021/10/20 09:40:12;;;;;;;2.85;2.20;;;21.50;98.60;;;;;;5070784;28;20240;-59
2021/10/20 09:42:47;;;;;;;4.60;2.38;;;21.60;98.30;;;;;;5070885;28;20224;-59
2021/10/20 09:45:16;;;;;;;4.25;2.28;;;21.70;98.20;;;;;;5070751;28;20691;-59
2021/10/20 09:47:43;;;;;;;3.83;2.28;;;21.70;98.10;;;;;;5070457;28;20205;-59
2021/10/20 09:50:11;;;;;;;4.88;2.50;;;21.70;98.10;;;;;;5070942;28;20225;-58
2021/10/20 09:52:46;;;;;;;4.10;2.05;;;21.80;98.10;;;;;;5070991;28;20201;-58
2021/10/20 09:55:26;;;;;;;3.65;1.92;;;21.90;98.00;;;;;;5070726;28;20211;-59
2021/10/20 09:57:56;;;;;;;4.57;2.00;;;22.10;97.50;;;;;;5070598;28;20208;-59
2021/10/20 10:00:23;;;;;;;4.30;2.00;;;22.30;97.60;;;;;;5070593;28;20258;-59
2021/10/20 10:02:53;;;;;;;4.57;2.20;;;22.50;97.40;;;;;;5070401;28;20320;-59
2021/10/20 10:05:20;;;;;;;2.55;2.00;;;22.70;97.10;;;;;;5070700;28;20266;-59
2021/10/20 10:07:47;;;;;;;2.65;2.10;;;22.80;96.80;;;;;;5070649;28;20205;-59
2021/10/20 10:10:14;;;;;;;5.53;1.98;;;23.00;96.60;;;;;;5070524;28;20232;-59
2021/10/20 10:12:44;;;;;;;4.40;2.20;;;23.20;96.00;;;;;;5070368;28;20205;-59
2021/10/20 10:15:13;;;;;;;2.90;1.90;;;23.30;95.80;;;;;;5070539;28;20511;-59
2021/10/20 10:17:41;;;;;;;6.75;2.75;;;23.40;95.60;;;;;;5070331;28;20564;-59
2021/10/20 10:20:12;;;;;;;3.67;1.95;;;23.30;95.60;;;;;;5070393;28;20283;-59
2021/10/20 10:22:49;;;;;;;3.42;2.20;;;23.30;95.50;;;;;;5070591;28;20290;-59
2021/10/20 10:25:16;;;;;;;3.72;2.03;;;23.40;95.40;;;;;;5070329;28;20213;-59
2021/10/20 10:28:05;;;;;;;4.90;2.10;;;23.50;95.40;;;;;;5070627;28;20216;-59
2021/10/20 10:30:33;;;;;;;3.08;2.05;;;23.60;95.00;;;;;;5070670;28;20236;-59
2021/10/20 10:33:02;;;;;;;3.70;2.00;;;23.70;95.20;;;;;;5070496;28;20205;-59
2021/10/20 10:35:32;;;;;;;3.35;2.30;;;23.80;95.20;;;;;;5073712;28;20240;-59
2021/10/20 10:38:04;;;;;;;3.72;2.15;;;23.80;95.00;;;;;;5074042;28;20232;-59
2021/10/20 10:40:32;;;;;;;6.40;2.40;;;24.00;94.80;;;;;;5074301;28;20711;-59
2021/10/20 10:43:06;;;;;;;3.47;2.10;;;24.20;94.90;;;;;;5073819;28;20692;-59
2021/10/20 10:45:34;;;;;;;2.58;2.10;;;24.30;94.40;;;;;;5073760;28;20204;-60
2021/10/20 10:48:03;;;;;;;3.20;1.98;;;24.40;94.10;;;;;;5073694;28;20208;-59
2021/10/20 10:50:45;;;;;;;3.80;2.15;;;24.40;94.10;;;;;;5073916;28;20711;-59
2021/10/20 10:53:27;;;;;;;2.53;1.88;;;24.50;94.10;;;;;;5073951;28;20262;-55
2021/10/20 10:56:08;;;;;;;4.40;2.20;;;24.50;93.70;;;;;;5073639;28;20668;-56
2021/10/20 10:58:56;;;;;;;2.97;2.10;;;24.60;93.60;;;;;;5073619;28;20325;-55
2021/10/20 11:01:43;;;;;;;4.28;1.88;;;24.80;93.50;;;;;;5073609;28;20691;-60
2021/10/20 11:04:23;;;;;;;3.97;1.92;;;24.70;93.20;;;;;;5074477;28;20208;-56
2021/10/20 11:06:56;;;;;;;7.45;3.53;;;24.50;93.60;;;;;;5081441;28;20583;-59
2021/10/20 11:09:30;;;;;;;4.40;2.20;;;24.50;93.80;;;;;;5077166;28;20257;-54
2021/10/20 11:11:57;;;;;;;6.82;2.17;;;24.50;93.60;;;;;;5074220;28;20221;-55
2021/10/20 11:14:28;;;;;;;3.22;2.00;;;24.50;93.20;;;;;;5073579;28;20208;-59
2021/10/20 11:16:57;;;;;;;2.97;2.10;;;24.40;93.50;;;;;;5073512;28;20672;-55
2021/10/20 11:19:25;;;;;;;3.63;1.95;;;24.30;93.40;;;;;;5073581;28;20225;-54
2021/10/20 11:21:52;;;;;;;3.72;1.60;;;24.20;93.40;;;;;;5073629;28;20273;-55
2021/10/20 11:24:19;;;;;;;3.35;2.08;;;24.10;93.50;;;;;;5073559;28;20209;-54
2021/10/20 11:26:47;;;;;;;4.22;2.00;;;24.00;93.70;;;;;;5073409;28;20881;-55
2021/10/20 11:29:15;;;;;;;3.85;2.40;;;23.90;93.80;;;;;;5073249;28;20225;-55
2021/10/20 11:31:52;;;;;;;3.25;1.95;;;23.80;94.00;;;;;;5073433;28;20256;-54
2021/10/20 11:34:20;;;;;;;3.65;1.92;;;23.80;94.20;;;;;;5073213;28;20209;-54
2021/10/20 11:36:47;;;;;;;4.28;2.28;;;23.80;94.40;;;;;;5073371;28;20205;-55
2021/10/20 11:39:14;;;;;;;2.50;2.00;;;23.90;94.30;;;;;;5072796;28;20236;-56
2021/10/20 11:41:49;;;;;;;4.75;2.00;;;24.00;94.30;;;;;;5072864;28;20201;-55
2021/10/20 11:44:19;;;;;;;3.03;2.22;;;24.10;94.30;;;;;;5072464;28;20698;-55
2021/10/20 11:46:46;;;;;;;3.08;1.83;;;24.20;94.40;;;;;;5071972;28;20209;-55
2021/10/20 11:49:14;;;;;;;2.85;1.98;;;24.30;94.40;;;;;;5072658;28;20630;-55
2021/10/20 11:51:43;;;;;;;3.97;1.80;;;24.40;94.20;;;;;;5072440;28;20703;-58
2021/10/20 11:54:10;;;;;;;4.47;1.70;;;24.30;94.40;;;;;;5072681;28;20205;-55
2021/10/20 11:56:37;;;;;;;6.53;1.63;;;24.20;94.20;;;;;;5072393;28;20565;-56
2021/10/20 11:59:09;;;;;;;4.40;1.88;;;24.20;94.30;;;;;;5072248;28;20231;-56
2021/10/20 12:01:36;;;;;;;6.55;2.33;;;24.40;94.50;;;;;;5072642;28;20209;-55
2021/10/20 12:04:07;;;;;;;4.50;1.58;;;24.80;94.10;;;;;;5070200;28;20208;-56
2021/10/20 12:06:35;;;;;;;4.35;1.95;;;25.20;93.70;;;;;;5071933;28;20608;-59
2021/10/20 12:09:02;;;;;;;4.68;2.20;;;25.50;93.40;;;;;;5072030;28;20231;-58
2021/10/20 12:11:29;;;;;;;2.85;1.90;;;25.70;92.80;;;;;;5072158;28;20213;-58
2021/10/20 12:14:04;;;;;;;3.03;1.60;;;25.80;92.50;;;;;;5071784;28;20205;-59
2021/10/20 12:16:32;;;;;;;2.83;1.80;;;25.80;92.30;;;;;;5072203;28;20605;-55
2021/10/20 12:18:59;;;;;;;2.75;1.88;;;25.80;92.40;;;;;;5072019;28;20236;-56
2021/10/20 12:21:28;;;;;;;1.88;1.70;;;25.70;92.30;;;;;;5072209;28;20232;-54
2021/10/20 12:23:59;;;;;;;1.88;1.63;;;25.60;92.40;;;;;;5071753;28;20315;-56
2021/10/20 12:26:28;;;;;;;6.63;1.92;;;25.60;92.30;;;;;;5072207;28;20668;-55
2021/10/20 12:28:55;;;;;;;2.72;1.80;;;25.80;92.30;;;;;;5072270;28;20473;-54
2021/10/20 12:31:22;;;;;;;7.85;1.70;;;26.00;92.00;;;;;;5072093;28;20211;-54
2021/10/20 12:33:51;;;;;;;3.88;1.90;;;26.00;91.80;;;;;;5072010;28;20196;-58
2021/10/20 12:36:21;;;;;;;4.85;1.90;;;26.20;91.70;;;;;;5072502;28;20244;-54
2021/10/20 12:38:48;;;;;;;9.27;2.10;;;26.10;91.90;;;;;;5095353;22;20232;-65
2021/10/20 12:41:18;;;;;;;7.38;2.42;;;26.00;91.90;;;;;;5072406;28;20204;-65
2021/10/20 12:43:45;;;;;;;3.60;2.00;;;26.00;92.00;;;;;;5071968;28;20229;-65
2021/10/20 12:46:14;;;;;;;4.75;1.80;;;26.10;92.00;;;;;;5072374;28;20209;-66
2021/10/20 12:48:42;;;;;;;2.03;1.77;;;26.10;92.00;;;;;;5071342;28;20224;-66
2021/10/20 12:51:10;;;;;;;5.35;1.65;;;26.10;92.30;;;;;;5071660;28;20699;-64